sensor_id;sensor_type;location;lat;lon;timestamp;P1;durP1;ratioP1;P2;durP2;ratioP2
14817;SDS011;7500;57.698;11.986;2022-08-19T00:01:33;14.77;;;10.43;;
14817;SDS011;7500;57.698;11.986;2022-08-19T00:04:03;14.77;;;10.40;;
14817;SDS011;7500;57.698;11.986;2022-08-19T00:06:32;14.10;;;10.73;;
14817;SDS011;7500;57.698;11.986;2022-08-19T00:09:00;17.83;;;10.83;;
14817;SDS011;7500;57.698;11.986;2022-08-19T00:11:27;15.33;;;11.40;;
14817;SDS011;7500;57.698;11.986;2022-08-19T00:13:54;14.70;;;11.83;;
14817;SDS011;7500;57.698;11.986;2022-08-19T00:16:22;12.77;;;11.13;;
14817;SDS011;7500;57.698;11.986;2022-08-19T00:18:49;17.37;;;12.53;;
14817;SDS011;7500;57.698;11.986;2022-08-19T00:21:18;15.03;;;12.10;;
14817;SDS011;7500;57.698;11.986;2022-08-19T00:23:44;17.63;;;12.73;;
14817;SDS011;7500;57.698;11.986;2022-08-19T00:26:11;17.67;;;12.00;;
14817;SDS011;7500;57.698;11.986;2022-08-19T00:28:38;16.63;;;12.53;;
14817;SDS011;7500;57.698;11.986;2022-08-19T00:31:06;16.60;;;12.17;;
14817;SDS011;7500;57.698;11.986;2022-08-19T00:33:34;15.40;;;13.07;;
14817;SDS011;7500;57.698;11.986;2022-08-19T00:36:02;17.23;;;13.10;;
14817;SDS011;7500;57.698;11.986;2022-08-19T00:38:33;18.13;;;12.83;;
14817;SDS011;7500;57.698;11.986;2022-08-19T00:41:00;17.13;;;13.50;;
14817;SDS011;7500;57.698;11.986;2022-08-19T00:43:27;16.07;;;12.43;;
14817;SDS011;7500;57.698;11.986;2022-08-19T00:45:54;14.47;;;11.60;;
14817;SDS011;7500;57.698;11.986;2022-08-19T00:48:21;20.07;;;12.77;;
14817;SDS011;7500;57.698;11.986;2022-08-19T00:50:48;17.40;;;12.30;;
14817;SDS011;7500;57.698;11.986;2022-08-19T00:53:18;16.47;;;12.77;;
14817;SDS011;7500;57.698;11.986;2022-08-19T00:55:49;15.23;;;12.77;;
14817;SDS011;7500;57.698;11.986;2022-08-19T00:58:19;17.77;;;14.53;;
14817;SDS011;7500;57.698;11.986;2022-08-19T01:00:50;16.30;;;13.83;;
14817;SDS011;7500;57.698;11.986;2022-08-19T01:03:18;20.30;;;13.83;;
14817;SDS011;7500;57.698;11.986;2022-08-19T01:05:46;17.07;;;14.07;;
14817;SDS011;7500;57.698;11.986;2022-08-19T01:08:15;21.03;;;15.67;;
14817;SDS011;7500;57.698;11.986;2022-08-19T01:10:45;17.10;;;13.50;;
14817;SDS011;7500;57.698;11.986;2022-08-19T01:13:16;15.20;;;13.57;;
14817;SDS011;7500;57.698;11.986;2022-08-19T01:15:46;17.87;;;12.93;;
14817;SDS011;7500;57.698;11.986;2022-08-19T01:18:17;16.20;;;13.70;;
14817;SDS011;7500;57.698;11.986;2022-08-19T01:20:46;16.27;;;13.90;;
14817;SDS011;7500;57.698;11.986;2022-08-19T01:23:14;16.53;;;14.20;;
14817;SDS011;7500;57.698;11.986;2022-08-19T01:25:44;18.13;;;14.33;;
14817;SDS011;7500;57.698;11.986;2022-08-19T01:28:16;19.40;;;14.63;;
14817;SDS011;7500;57.698;11.986;2022-08-19T01:30:45;16.57;;;13.10;;
14817;SDS011;7500;57.698;11.986;2022-08-19T01:33:13;17.60;;;15.03;;
14817;SDS011;7500;57.698;11.986;2022-08-19T01:35:40;19.80;;;15.80;;
14817;SDS011;7500;57.698;11.986;2022-08-19T01:38:08;22.40;;;16.53;;
14817;SDS011;7500;57.698;11.986;2022-08-19T01:40:39;19.90;;;15.73;;
14817;SDS011;7500;57.698;11.986;2022-08-19T01:43:07;20.80;;;16.13;;
14817;SDS011;7500;57.698;11.986;2022-08-19T01:45:34;21.60;;;17.10;;
14817;SDS011;7500;57.698;11.986;2022-08-19T01:48:05;22.63;;;16.77;;
14817;SDS011;7500;57.698;11.986;2022-08-19T01:50:33;20.53;;;16.27;;
14817;SDS011;7500;57.698;11.986;2022-08-19T01:53:01;20.60;;;14.90;;
14817;SDS011;7500;57.698;11.986;2022-08-19T01:55:29;19.33;;;15.67;;
14817;SDS011;7500;57.698;11.986;2022-08-19T01:57:58;17.47;;;14.50;;
14817;SDS011;7500;57.698;11.986;2022-08-19T02:00:29;18.53;;;14.90;;
14817;SDS011;7500;57.698;11.986;2022-08-19T02:02:57;18.20;;;15.50;;
14817;SDS011;7500;57.698;11.986;2022-08-19T02:05:26;15.97;;;14.03;;
14817;SDS011;7500;57.698;11.986;2022-08-19T02:07:54;17.13;;;14.83;;
14817;SDS011;7500;57.698;11.986;2022-08-19T02:10:21;16.00;;;13.97;;
14817;SDS011;7500;57.698;11.986;2022-08-19T02:12:48;17.73;;;14.33;;
14817;SDS011;7500;57.698;11.986;2022-08-19T02:15:18;15.17;;;13.63;;
14817;SDS011;7500;57.698;11.986;2022-08-19T02:17:45;15.83;;;14.03;;
14817;SDS011;7500;57.698;11.986;2022-08-19T02:20:13;17.20;;;13.20;;
14817;SDS011;7500;57.698;11.986;2022-08-19T02:22:41;16.87;;;13.67;;
14817;SDS011;7500;57.698;11.986;2022-08-19T02:25:09;16.57;;;13.50;;
14817;SDS011;7500;57.698;11.986;2022-08-19T02:27:37;21.70;;;14.70;;
14817;SDS011;7500;57.698;11.986;2022-08-19T02:30:05;17.43;;;13.53;;
14817;SDS011;7500;57.698;11.986;2022-08-19T02:32:35;17.33;;;14.13;;
14817;SDS011;7500;57.698;11.986;2022-08-19T02:35:02;16.43;;;13.83;;
14817;SDS011;7500;57.698;11.986;2022-08-19T02:37:30;18.43;;;13.83;;
14817;SDS011;7500;57.698;11.986;2022-08-19T02:40:14;18.90;;;15.23;;
14817;SDS011;7500;57.698;11.986;2022-08-19T02:42:42;16.83;;;14.53;;
14817;SDS011;7500;57.698;11.986;2022-08-19T02:45:10;17.00;;;15.00;;
14817;SDS011;7500;57.698;11.986;2022-08-19T02:47:39;18.20;;;14.37;;
14817;SDS011;7500;57.698;11.986;2022-08-19T02:50:06;18.97;;;14.50;;
14817;SDS011;7500;57.698;11.986;2022-08-19T02:52:34;18.77;;;14.53;;
14817;SDS011;7500;57.698;11.986;2022-08-19T02:55:01;23.77;;;14.93;;
14817;SDS011;7500;57.698;11.986;2022-08-19T02:57:29;20.73;;;14.13;;
14817;SDS011;7500;57.698;11.986;2022-08-19T02:59:57;19.33;;;13.57;;
14817;SDS011;7500;57.698;11.986;2022-08-19T03:02:24;19.07;;;13.67;;
14817;SDS011;7500;57.698;11.986;2022-08-19T03:04:52;18.20;;;13.47;;
14817;SDS011;7500;57.698;11.986;2022-08-19T03:07:19;16.67;;;12.93;;
14817;SDS011;7500;57.698;11.986;2022-08-19T03:09:46;16.43;;;12.47;;
14817;SDS011;7500;57.698;11.986;2022-08-19T03:12:13;16.43;;;11.93;;
14817;SDS011;7500;57.698;11.986;2022-08-19T03:14:39;17.53;;;12.70;;
14817;SDS011;7500;57.698;11.986;2022-08-19T03:17:06;14.53;;;11.70;;
14817;SDS011;7500;57.698;11.986;2022-08-19T03:19:33;16.63;;;11.77;;
14817;SDS011;7500;57.698;11.986;2022-08-19T03:22:01;13.80;;;10.93;;
14817;SDS011;7500;57.698;11.986;2022-08-19T03:24:29;17.57;;;11.67;;
14817;SDS011;7500;57.698;11.986;2022-08-19T03:26:56;13.80;;;10.97;;
14817;SDS011;7500;57.698;11.986;2022-08-19T03:29:24;15.00;;;11.27;;
14817;SDS011;7500;57.698;11.986;2022-08-19T03:31:51;13.87;;;10.93;;
14817;SDS011;7500;57.698;11.986;2022-08-19T03:34:19;16.47;;;11.50;;
14817;SDS011;7500;57.698;11.986;2022-08-19T03:36:48;17.53;;;11.23;;
14817;SDS011;7500;57.698;11.986;2022-08-19T03:39:16;19.10;;;11.57;;
14817;SDS011;7500;57.698;11.986;2022-08-19T03:41:44;16.43;;;11.07;;
14817;SDS011;7500;57.698;11.986;2022-08-19T03:44:12;17.47;;;11.77;;
14817;SDS011;7500;57.698;11.986;2022-08-19T03:46:39;17.90;;;12.30;;
14817;SDS011;7500;57.698;11.986;2022-08-19T03:49:06;15.17;;;11.60;;
14817;SDS011;7500;57.698;11.986;2022-08-19T03:51:34;12.70;;;10.50;;
14817;SDS011;7500;57.698;11.986;2022-08-19T03:54:03;15.07;;;11.77;;
14817;SDS011;7500;57.698;11.986;2022-08-19T03:56:34;15.10;;;11.37;;
14817;SDS011;7500;57.698;11.986;2022-08-19T03:59:03;15.00;;;11.00;;
14817;SDS011;7500;57.698;11.986;2022-08-19T04:01:30;15.80;;;12.23;;
14817;SDS011;7500;57.698;11.986;2022-08-19T04:03:58;13.50;;;12.03;;
14817;SDS011;7500;57.698;11.986;2022-08-19T04:06:26;15.03;;;11.80;;
14817;SDS011;7500;57.698;11.986;2022-08-19T04:08:55;13.90;;;11.63;;
14817;SDS011;7500;57.698;11.986;2022-08-19T04:11:24;17.53;;;14.47;;
14817;SDS011;7500;57.698;11.986;2022-08-19T04:13:54;18.80;;;14.07;;
14817;SDS011;7500;57.698;11.986;2022-08-19T04:16:22;21.80;;;15.77;;
14817;SDS011;7500;57.698;11.986;2022-08-19T04:18:50;17.47;;;13.80;;
14817;SDS011;7500;57.698;11.986;2022-08-19T04:21:19;18.80;;;14.80;;
14817;SDS011;7500;57.698;11.986;2022-08-19T04:23:47;16.97;;;14.70;;
14817;SDS011;7500;57.698;11.986;2022-08-19T04:26:15;18.37;;;14.50;;
14817;SDS011;7500;57.698;11.986;2022-08-19T04:28:43;17.73;;;14.63;;
14817;SDS011;7500;57.698;11.986;2022-08-19T04:31:14;17.13;;;15.33;;
14817;SDS011;7500;57.698;11.986;2022-08-19T04:33:42;24.53;;;15.80;;
14817;SDS011;7500;57.698;11.986;2022-08-19T04:36:15;22.63;;;16.97;;
14817;SDS011;7500;57.698;11.986;2022-08-19T04:38:45;18.40;;;16.27;;
14817;SDS011;7500;57.698;11.986;2022-08-19T04:41:12;19.27;;;16.20;;
14817;SDS011;7500;57.698;11.986;2022-08-19T04:43:57;18.63;;;16.63;;
14817;SDS011;7500;57.698;11.986;2022-08-19T04:46:25;16.83;;;14.70;;
14817;SDS011;7500;57.698;11.986;2022-08-19T04:48:54;19.50;;;15.17;;
14817;SDS011;7500;57.698;11.986;2022-08-19T04:51:22;25.43;;;16.50;;
14817;SDS011;7500;57.698;11.986;2022-08-19T04:53:49;19.80;;;15.97;;
14817;SDS011;7500;57.698;11.986;2022-08-19T04:56:17;21.57;;;17.10;;
14817;SDS011;7500;57.698;11.986;2022-08-19T04:58:49;26.50;;;21.05;;
14817;SDS011;7500;57.698;11.986;2022-08-19T05:01:17;21.90;;;18.20;;
14817;SDS011;7500;57.698;11.986;2022-08-19T05:03:47;26.73;;;18.33;;
14817;SDS011;7500;57.698;11.986;2022-08-19T05:06:14;22.70;;;16.57;;
14817;SDS011;7500;57.698;11.986;2022-08-19T05:08:43;23.77;;;18.63;;
14817;SDS011;7500;57.698;11.986;2022-08-19T05:11:11;20.67;;;16.93;;
14817;SDS011;7500;57.698;11.986;2022-08-19T05:13:39;19.90;;;15.93;;
14817;SDS011;7500;57.698;11.986;2022-08-19T05:16:07;25.40;;;20.17;;
14817;SDS011;7500;57.698;11.986;2022-08-19T05:18:34;24.47;;;19.03;;
14817;SDS011;7500;57.698;11.986;2022-08-19T05:21:19;21.27;;;17.00;;
14817;SDS011;7500;57.698;11.986;2022-08-19T05:24:04;17.33;;;15.20;;
14817;SDS011;7500;57.698;11.986;2022-08-19T05:26:34;17.60;;;14.23;;
14817;SDS011;7500;57.698;11.986;2022-08-19T05:29:01;15.60;;;13.83;;
14817;SDS011;7500;57.698;11.986;2022-08-19T05:31:29;15.63;;;14.03;;
14817;SDS011;7500;57.698;11.986;2022-08-19T05:33:56;16.77;;;14.97;;
14817;SDS011;7500;57.698;11.986;2022-08-19T05:36:25;15.80;;;14.10;;
14817;SDS011;7500;57.698;11.986;2022-08-19T05:38:52;15.77;;;14.10;;
14817;SDS011;7500;57.698;11.986;2022-08-19T05:41:20;14.33;;;12.83;;
14817;SDS011;7500;57.698;11.986;2022-08-19T05:43:55;15.27;;;12.73;;
14817;SDS011;7500;57.698;11.986;2022-08-19T05:46:22;14.30;;;12.80;;
14817;SDS011;7500;57.698;11.986;2022-08-19T05:48:49;14.53;;;12.80;;
14817;SDS011;7500;57.698;11.986;2022-08-19T05:51:16;16.53;;;13.60;;
14817;SDS011;7500;57.698;11.986;2022-08-19T05:53:44;14.60;;;13.10;;
14817;SDS011;7500;57.698;11.986;2022-08-19T05:56:12;15.07;;;13.00;;
14817;SDS011;7500;57.698;11.986;2022-08-19T05:58:41;13.43;;;12.07;;
14817;SDS011;7500;57.698;11.986;2022-08-19T06:01:10;14.07;;;12.67;;
14817;SDS011;7500;57.698;11.986;2022-08-19T06:03:38;17.23;;;12.37;;
14817;SDS011;7500;57.698;11.986;2022-08-19T06:06:05;13.23;;;11.93;;
14817;SDS011;7500;57.698;11.986;2022-08-19T06:08:34;13.13;;;11.83;;
14817;SDS011;7500;57.698;11.986;2022-08-19T06:11:13;12.00;;;10.77;;
14817;SDS011;7500;57.698;11.986;2022-08-19T06:13:43;11.33;;;10.33;;
14817;SDS011;7500;57.698;11.986;2022-08-19T06:16:12;10.67;;;9.57;;
14817;SDS011;7500;57.698;11.986;2022-08-19T06:18:46;10.00;;;9.10;;
14817;SDS011;7500;57.698;11.986;2022-08-19T06:21:13;10.20;;;9.27;;
14817;SDS011;7500;57.698;11.986;2022-08-19T06:23:40;10.10;;;9.20;;
14817;SDS011;7500;57.698;11.986;2022-08-19T06:26:10;10.33;;;9.33;;
14817;SDS011;7500;57.698;11.986;2022-08-19T06:28:39;10.37;;;9.43;;
14817;SDS011;7500;57.698;11.986;2022-08-19T06:31:08;9.57;;;8.77;;
14817;SDS011;7500;57.698;11.986;2022-08-19T06:33:35;10.93;;;9.83;;
14817;SDS011;7500;57.698;11.986;2022-08-19T06:36:02;10.30;;;9.30;;
14817;SDS011;7500;57.698;11.986;2022-08-19T06:38:29;10.03;;;9.23;;
14817;SDS011;7500;57.698;11.986;2022-08-19T06:41:00;10.70;;;9.70;;
14817;SDS011;7500;57.698;11.986;2022-08-19T06:43:28;10.10;;;9.20;;
14817;SDS011;7500;57.698;11.986;2022-08-19T06:45:55;10.37;;;9.47;;
14817;SDS011;7500;57.698;11.986;2022-08-19T06:48:24;10.37;;;9.47;;
14817;SDS011;7500;57.698;11.986;2022-08-19T06:50:51;10.93;;;10.00;;
14817;SDS011;7500;57.698;11.986;2022-08-19T06:53:18;10.60;;;9.60;;
14817;SDS011;7500;57.698;11.986;2022-08-19T06:55:45;10.10;;;9.20;;
14817;SDS011;7500;57.698;11.986;2022-08-19T06:58:12;10.00;;;9.17;;
14817;SDS011;7500;57.698;11.986;2022-08-19T07:00:40;11.60;;;9.57;;
14817;SDS011;7500;57.698;11.986;2022-08-19T07:03:07;10.83;;;9.73;;
14817;SDS011;7500;57.698;11.986;2022-08-19T07:05:37;10.00;;;9.07;;
14817;SDS011;7500;57.698;11.986;2022-08-19T07:08:05;10.07;;;9.23;;
14817;SDS011;7500;57.698;11.986;2022-08-19T07:10:32;9.33;;;8.53;;
14817;SDS011;7500;57.698;11.986;2022-08-19T07:13:00;9.90;;;9.10;;
14817;SDS011;7500;57.698;11.986;2022-08-19T07:15:27;9.13;;;8.43;;
14817;SDS011;7500;57.698;11.986;2022-08-19T07:17:55;8.80;;;8.10;;
14817;SDS011;7500;57.698;11.986;2022-08-19T07:20:22;8.70;;;8.00;;
14817;SDS011;7500;57.698;11.986;2022-08-19T07:22:49;9.30;;;8.60;;
14817;SDS011;7500;57.698;11.986;2022-08-19T07:25:16;8.73;;;8.13;;
14817;SDS011;7500;57.698;11.986;2022-08-19T07:27:43;8.33;;;7.53;;
14817;SDS011;7500;57.698;11.986;2022-08-19T07:30:11;8.43;;;7.83;;
14817;SDS011;7500;57.698;11.986;2022-08-19T07:32:38;8.97;;;8.17;;
14817;SDS011;7500;57.698;11.986;2022-08-19T07:35:07;9.60;;;8.83;;
14817;SDS011;7500;57.698;11.986;2022-08-19T07:37:34;9.07;;;8.17;;
14817;SDS011;7500;57.698;11.986;2022-08-19T07:40:02;8.43;;;7.73;;
14817;SDS011;7500;57.698;11.986;2022-08-19T07:42:30;8.90;;;8.10;;
14817;SDS011;7500;57.698;11.986;2022-08-19T07:44:57;8.60;;;8.00;;
14817;SDS011;7500;57.698;11.986;2022-08-19T07:47:24;9.00;;;8.30;;
14817;SDS011;7500;57.698;11.986;2022-08-19T07:49:53;9.73;;;8.97;;
14817;SDS011;7500;57.698;11.986;2022-08-19T07:52:21;9.63;;;8.93;;
14817;SDS011;7500;57.698;11.986;2022-08-19T07:54:48;9.77;;;9.07;;
14817;SDS011;7500;57.698;11.986;2022-08-19T07:57:15;9.60;;;8.80;;
14817;SDS011;7500;57.698;11.986;2022-08-19T07:59:44;9.60;;;8.90;;
14817;SDS011;7500;57.698;11.986;2022-08-19T08:02:11;9.47;;;8.57;;
14817;SDS011;7500;57.698;11.986;2022-08-19T08:04:38;9.23;;;8.57;;
14817;SDS011;7500;57.698;11.986;2022-08-19T08:07:23;9.97;;;9.03;;
14817;SDS011;7500;57.698;11.986;2022-08-19T08:10:07;9.07;;;8.27;;
14817;SDS011;7500;57.698;11.986;2022-08-19T08:12:36;9.30;;;8.50;;
14817;SDS011;7500;57.698;11.986;2022-08-19T08:15:07;9.40;;;8.53;;
14817;SDS011;7500;57.698;11.986;2022-08-19T08:17:36;9.50;;;8.77;;
14817;SDS011;7500;57.698;11.986;2022-08-19T08:20:04;9.57;;;8.67;;
14817;SDS011;7500;57.698;11.986;2022-08-19T08:22:34;11.00;;;9.90;;
14817;SDS011;7500;57.698;11.986;2022-08-19T08:25:19;10.90;;;10.00;;
14817;SDS011;7500;57.698;11.986;2022-08-19T08:27:47;10.27;;;9.37;;
14817;SDS011;7500;57.698;11.986;2022-08-19T08:30:15;10.47;;;9.60;;
14817;SDS011;7500;57.698;11.986;2022-08-19T08:32:44;10.60;;;9.60;;
14817;SDS011;7500;57.698;11.986;2022-08-19T08:35:11;10.30;;;9.53;;
14817;SDS011;7500;57.698;11.986;2022-08-19T08:37:41;10.33;;;9.60;;
14817;SDS011;7500;57.698;11.986;2022-08-19T08:40:09;9.70;;;8.70;;
14817;SDS011;7500;57.698;11.986;2022-08-19T08:42:45;9.57;;;8.57;;
14817;SDS011;7500;57.698;11.986;2022-08-19T08:45:20;10.00;;;9.20;;
14817;SDS011;7500;57.698;11.986;2022-08-19T08:47:50;9.40;;;8.60;;
14817;SDS011;7500;57.698;11.986;2022-08-19T08:50:21;10.03;;;9.23;;
14817;SDS011;7500;57.698;11.986;2022-08-19T08:52:56;10.70;;;9.90;;
14817;SDS011;7500;57.698;11.986;2022-08-19T08:55:25;10.60;;;9.70;;
14817;SDS011;7500;57.698;11.986;2022-08-19T08:57:55;10.93;;;10.03;;
14817;SDS011;7500;57.698;11.986;2022-08-19T09:00:27;11.47;;;9.50;;
14817;SDS011;7500;57.698;11.986;2022-08-19T09:02:57;10.93;;;10.00;;
14817;SDS011;7500;57.698;11.986;2022-08-19T09:05:27;11.70;;;10.57;;
14817;SDS011;7500;57.698;11.986;2022-08-19T09:08:04;11.53;;;10.47;;
14817;SDS011;7500;57.698;11.986;2022-08-19T09:10:36;10.97;;;10.00;;
14817;SDS011;7500;57.698;11.986;2022-08-19T09:13:07;11.60;;;10.60;;
14817;SDS011;7500;57.698;11.986;2022-08-19T09:15:42;14.37;;;9.80;;
14817;SDS011;7500;57.698;11.986;2022-08-19T09:18:11;9.80;;;9.00;;
14817;SDS011;7500;57.698;11.986;2022-08-19T09:20:37;10.13;;;9.13;;
14817;SDS011;7500;57.698;11.986;2022-08-19T09:23:06;10.17;;;9.37;;
14817;SDS011;7500;57.698;11.986;2022-08-19T09:25:33;10.17;;;9.23;;
14817;SDS011;7500;57.698;11.986;2022-08-19T09:28:00;10.60;;;9.50;;
14817;SDS011;7500;57.698;11.986;2022-08-19T09:30:29;9.70;;;8.90;;
14817;SDS011;7500;57.698;11.986;2022-08-19T09:32:57;9.90;;;8.90;;
14817;SDS011;7500;57.698;11.986;2022-08-19T09:35:25;11.83;;;9.80;;
14817;SDS011;7500;57.698;11.986;2022-08-19T09:37:54;12.47;;;8.90;;
14817;SDS011;7500;57.698;11.986;2022-08-19T09:40:24;9.60;;;8.63;;
14817;SDS011;7500;57.698;11.986;2022-08-19T09:42:51;9.20;;;8.30;;
14817;SDS011;7500;57.698;11.986;2022-08-19T09:45:20;10.77;;;8.63;;
14817;SDS011;7500;57.698;11.986;2022-08-19T09:47:47;10.90;;;8.07;;
14817;SDS011;7500;57.698;11.986;2022-08-19T09:50:16;11.67;;;9.20;;
14817;SDS011;7500;57.698;11.986;2022-08-19T09:52:43;10.57;;;8.63;;
14817;SDS011;7500;57.698;11.986;2022-08-19T09:55:10;9.57;;;8.63;;
14817;SDS011;7500;57.698;11.986;2022-08-19T09:57:38;9.70;;;8.70;;
14817;SDS011;7500;57.698;11.986;2022-08-19T10:00:06;10.27;;;9.27;;
14817;SDS011;7500;57.698;11.986;2022-08-19T10:02:35;10.73;;;9.07;;
14817;SDS011;7500;57.698;11.986;2022-08-19T10:05:02;10.40;;;8.73;;
14817;SDS011;7500;57.698;11.986;2022-08-19T10:07:47;9.90;;;9.00;;
14817;SDS011;7500;57.698;11.986;2022-08-19T10:10:14;8.83;;;8.00;;
14817;SDS011;7500;57.698;11.986;2022-08-19T10:12:43;10.10;;;8.63;;
14817;SDS011;7500;57.698;11.986;2022-08-19T10:15:12;11.23;;;8.63;;
14817;SDS011;7500;57.698;11.986;2022-08-19T10:17:40;9.10;;;8.30;;
14817;SDS011;7500;57.698;11.986;2022-08-19T10:20:07;9.70;;;8.80;;
14817;SDS011;7500;57.698;11.986;2022-08-19T10:22:34;12.27;;;8.93;;
14817;SDS011;7500;57.698;11.986;2022-08-19T10:25:03;8.90;;;8.07;;
14817;SDS011;7500;57.698;11.986;2022-08-19T10:27:31;9.17;;;7.87;;
14817;SDS011;7500;57.698;11.986;2022-08-19T10:29:59;7.80;;;7.00;;
14817;SDS011;7500;57.698;11.986;2022-08-19T10:32:26;8.50;;;7.70;;
14817;SDS011;7500;57.698;11.986;2022-08-19T10:34:54;8.03;;;7.23;;
14817;SDS011;7500;57.698;11.986;2022-08-19T10:37:21;9.90;;;8.20;;
14817;SDS011;7500;57.698;11.986;2022-08-19T10:39:48;10.63;;;7.77;;
14817;SDS011;7500;57.698;11.986;2022-08-19T10:42:15;8.60;;;7.63;;
14817;SDS011;7500;57.698;11.986;2022-08-19T10:44:43;9.03;;;8.23;;
14817;SDS011;7500;57.698;11.986;2022-08-19T10:47:13;8.90;;;7.90;;
14817;SDS011;7500;57.698;11.986;2022-08-19T10:49:40;9.93;;;7.80;;
14817;SDS011;7500;57.698;11.986;2022-08-19T10:52:20;11.37;;;7.80;;
14817;SDS011;7500;57.698;11.986;2022-08-19T10:54:59;10.70;;;7.67;;
14817;SDS011;7500;57.698;11.986;2022-08-19T10:57:44;8.73;;;7.87;;
14817;SDS011;7500;57.698;11.986;2022-08-19T11:00:11;10.70;;;9.70;;
14817;SDS011;7500;57.698;11.986;2022-08-19T11:02:40;13.77;;;12.47;;
14817;SDS011;7500;57.698;11.986;2022-08-19T11:05:08;11.17;;;9.97;;
14817;SDS011;7500;57.698;11.986;2022-08-19T11:07:37;9.33;;;7.97;;
14817;SDS011;7500;57.698;11.986;2022-08-19T11:10:04;11.07;;;7.23;;
14817;SDS011;7500;57.698;11.986;2022-08-19T11:12:32;7.33;;;6.60;;
14817;SDS011;7500;57.698;11.986;2022-08-19T11:14:59;7.57;;;6.87;;
14817;SDS011;7500;57.698;11.986;2022-08-19T11:17:26;10.20;;;7.30;;
14817;SDS011;7500;57.698;11.986;2022-08-19T11:19:56;8.47;;;7.17;;
14817;SDS011;7500;57.698;11.986;2022-08-19T11:22:23;8.47;;;7.67;;
14817;SDS011;7500;57.698;11.986;2022-08-19T11:24:49;8.43;;;7.47;;
14817;SDS011;7500;57.698;11.986;2022-08-19T11:27:16;7.53;;;6.70;;
14817;SDS011;7500;57.698;11.986;2022-08-19T11:29:43;9.47;;;7.13;;
14817;SDS011;7500;57.698;11.986;2022-08-19T11:32:10;8.43;;;7.73;;
14817;SDS011;7500;57.698;11.986;2022-08-19T11:34:38;8.37;;;7.63;;
14817;SDS011;7500;57.698;11.986;2022-08-19T11:37:06;9.70;;;7.37;;
14817;SDS011;7500;57.698;11.986;2022-08-19T11:39:34;9.07;;;7.70;;
14817;SDS011;7500;57.698;11.986;2022-08-19T11:42:02;8.13;;;7.30;;
14817;SDS011;7500;57.698;11.986;2022-08-19T11:44:51;9.83;;;7.50;;
14817;SDS011;7500;57.698;11.986;2022-08-19T11:47:18;9.97;;;7.30;;
14817;SDS011;7500;57.698;11.986;2022-08-19T11:49:45;8.20;;;7.50;;
14817;SDS011;7500;57.698;11.986;2022-08-19T11:52:14;8.43;;;7.50;;
14817;SDS011;7500;57.698;11.986;2022-08-19T11:54:41;9.10;;;7.77;;
14817;SDS011;7500;57.698;11.986;2022-08-19T11:57:07;12.23;;;8.23;;
14817;SDS011;7500;57.698;11.986;2022-08-19T11:59:34;8.03;;;7.33;;
14817;SDS011;7500;57.698;11.986;2022-08-19T12:02:01;7.90;;;7.30;;
14817;SDS011;7500;57.698;11.986;2022-08-19T12:04:28;9.33;;;7.27;;
14817;SDS011;7500;57.698;11.986;2022-08-19T12:06:55;8.33;;;7.13;;
14817;SDS011;7500;57.698;11.986;2022-08-19T12:09:23;8.27;;;7.07;;
14817;SDS011;7500;57.698;11.986;2022-08-19T12:11:50;8.13;;;7.30;;
14817;SDS011;7500;57.698;11.986;2022-08-19T12:14:17;8.50;;;7.70;;
14817;SDS011;7500;57.698;11.986;2022-08-19T12:16:44;8.07;;;7.30;;
14817;SDS011;7500;57.698;11.986;2022-08-19T12:19:12;10.33;;;7.63;;
14817;SDS011;7500;57.698;11.986;2022-08-19T12:21:39;10.50;;;7.10;;
14817;SDS011;7500;57.698;11.986;2022-08-19T12:24:06;9.80;;;8.20;;
14817;SDS011;7500;57.698;11.986;2022-08-19T12:26:34;8.80;;;8.00;;
14817;SDS011;7500;57.698;11.986;2022-08-19T12:29:01;8.60;;;7.73;;
14817;SDS011;7500;57.698;11.986;2022-08-19T12:31:29;8.83;;;7.80;;
14817;SDS011;7500;57.698;11.986;2022-08-19T12:33:56;10.50;;;9.33;;
14817;SDS011;7500;57.698;11.986;2022-08-19T12:36:24;9.77;;;8.87;;
14817;SDS011;7500;57.698;11.986;2022-08-19T12:38:51;9.63;;;8.83;;
14817;SDS011;7500;57.698;11.986;2022-08-19T12:41:19;9.33;;;8.40;;
14817;SDS011;7500;57.698;11.986;2022-08-19T12:43:48;9.00;;;8.10;;
14817;SDS011;7500;57.698;11.986;2022-08-19T12:46:17;11.27;;;8.60;;
14817;SDS011;7500;57.698;11.986;2022-08-19T12:48:45;9.13;;;8.37;;
14817;SDS011;7500;57.698;11.986;2022-08-19T12:51:13;9.23;;;8.53;;
14817;SDS011;7500;57.698;11.986;2022-08-19T12:53:42;8.60;;;7.63;;
14817;SDS011;7500;57.698;11.986;2022-08-19T12:56:09;11.43;;;7.43;;
14817;SDS011;7500;57.698;11.986;2022-08-19T12:58:39;8.13;;;5.47;;
14817;SDS011;7500;57.698;11.986;2022-08-19T13:01:09;5.63;;;5.10;;
14817;SDS011;7500;57.698;11.986;2022-08-19T13:03:37;5.93;;;5.30;;
14817;SDS011;7500;57.698;11.986;2022-08-19T13:06:05;5.63;;;5.00;;
14817;SDS011;7500;57.698;11.986;2022-08-19T13:08:33;5.90;;;5.10;;
14817;SDS011;7500;57.698;11.986;2022-08-19T13:11:06;7.20;;;4.50;;
14817;SDS011;7500;57.698;11.986;2022-08-19T13:13:36;7.30;;;5.53;;
14817;SDS011;7500;57.698;11.986;2022-08-19T13:16:05;6.13;;;5.57;;
14817;SDS011;7500;57.698;11.986;2022-08-19T13:18:35;6.83;;;5.20;;
14817;SDS011;7500;57.698;11.986;2022-08-19T13:21:02;6.20;;;4.90;;
14817;SDS011;7500;57.698;11.986;2022-08-19T13:23:30;8.27;;;5.20;;
14817;SDS011;7500;57.698;11.986;2022-08-19T13:25:57;5.63;;;4.10;;
14817;SDS011;7500;57.698;11.986;2022-08-19T13:28:24;4.97;;;4.07;;
14817;SDS011;7500;57.698;11.986;2022-08-19T13:30:51;6.13;;;4.70;;
14817;SDS011;7500;57.698;11.986;2022-08-19T13:33:36;7.77;;;5.00;;
14817;SDS011;7500;57.698;11.986;2022-08-19T13:36:03;7.00;;;5.30;;
14817;SDS011;7500;57.698;11.986;2022-08-19T13:38:32;5.40;;;4.37;;
14817;SDS011;7500;57.698;11.986;2022-08-19T13:41:03;6.73;;;4.43;;
14817;SDS011;7500;57.698;11.986;2022-08-19T13:43:32;6.10;;;4.60;;
14817;SDS011;7500;57.698;11.986;2022-08-19T13:45:59;7.13;;;4.07;;
14817;SDS011;7500;57.698;11.986;2022-08-19T13:48:27;4.93;;;3.63;;
14817;SDS011;7500;57.698;11.986;2022-08-19T13:50:57;5.13;;;3.40;;
14817;SDS011;7500;57.698;11.986;2022-08-19T13:53:24;6.00;;;3.70;;
14817;SDS011;7500;57.698;11.986;2022-08-19T13:55:51;4.63;;;3.37;;
14817;SDS011;7500;57.698;11.986;2022-08-19T13:58:18;7.63;;;4.37;;
14817;SDS011;7500;57.698;11.986;2022-08-19T14:00:46;6.27;;;4.13;;
14817;SDS011;7500;57.698;11.986;2022-08-19T14:03:13;3.87;;;3.40;;
14817;SDS011;7500;57.698;11.986;2022-08-19T14:05:40;3.83;;;3.37;;
14817;SDS011;7500;57.698;11.986;2022-08-19T14:08:08;5.47;;;3.07;;
14817;SDS011;7500;57.698;11.986;2022-08-19T14:10:39;4.13;;;3.17;;
14817;SDS011;7500;57.698;11.986;2022-08-19T14:13:05;4.87;;;3.30;;
14817;SDS011;7500;57.698;11.986;2022-08-19T14:15:32;4.07;;;3.50;;
14817;SDS011;7500;57.698;11.986;2022-08-19T14:17:59;4.63;;;3.73;;
14817;SDS011;7500;57.698;11.986;2022-08-19T14:20:26;4.23;;;3.20;;
14817;SDS011;7500;57.698;11.986;2022-08-19T14:22:53;3.77;;;2.87;;
14817;SDS011;7500;57.698;11.986;2022-08-19T14:25:23;2.93;;;2.73;;
14817;SDS011;7500;57.698;11.986;2022-08-19T14:27:52;5.53;;;3.20;;
14817;SDS011;7500;57.698;11.986;2022-08-19T14:30:21;4.87;;;3.00;;
14817;SDS011;7500;57.698;11.986;2022-08-19T14:32:50;4.97;;;3.60;;
14817;SDS011;7500;57.698;11.986;2022-08-19T14:35:17;3.10;;;2.80;;
14817;SDS011;7500;57.698;11.986;2022-08-19T14:37:44;3.73;;;2.60;;
14817;SDS011;7500;57.698;11.986;2022-08-19T14:40:12;6.50;;;2.57;;
14817;SDS011;7500;57.698;11.986;2022-08-19T14:42:42;4.77;;;2.70;;